Fire Island Natl Seashore, New York
Current Conditions -  °F | °C
As of 10:56 PM on Wednesday 26 Nov 2014 (Local Time) from KISP Reporting Station
Light Snow Light Snow  
Wind Chill: 26°   Ceiling: 900
Heat Index: 36°   Visibility: 4mi
Dew Point: 33°   Wind: 18mph
Humidity: 89%   Direction: 340°NNW
Pressure: 29.73"   Gusts: 29mph
Location:  40.67°N, 73.04°W
Report Text: KISP 270356Z 34016G25KT 4SM -RASN BR BKN009 BKN015 OVC020 02/01 A2973 RMK AO2 SLP066 P0001 T00220006
Loading
Personal Weather Stations






























Interactive Weather Map New forecast layout! Learn more

10-Day Weather Forecast

Advertisements
Track Severe Weather on mobile